createdAt,value
2022-08-17T00:00:55.022Z,100223.73
2022-08-17T00:01:59.959Z,100221.56
2022-08-17T00:03:17.505Z,100221.88
2022-08-17T00:04:20.759Z,100224.17
2022-08-17T00:05:23.971Z,100230.36
2022-08-17T00:06:29.273Z,100228.73
2022-08-17T00:07:32.538Z,100217.06
2022-08-17T00:08:41.979Z,100218.50
2022-08-17T00:09:45.044Z,100223.59
2022-08-17T00:10:49.033Z,100213.84
2022-08-17T00:12:40.910Z,100210.23
2022-08-17T00:12:56.996Z,100208.58
2022-08-17T00:14:06.740Z,100207.78
2022-08-17T00:15:10.900Z,100211.70
2022-08-17T00:16:56.650Z,100212.01
2022-08-17T00:17:31.211Z,100208.39
2022-08-17T00:19:07.858Z,100201.81
2022-08-17T00:19:39.555Z,100198.50
2022-08-17T00:20:43.062Z,100204.72
2022-08-17T00:22:29.389Z,100202.23
2022-08-17T00:23:04.758Z,100205.32
2022-08-17T00:24:08.179Z,100205.66
2022-08-17T00:25:14.624Z,100209.58
2022-08-17T00:26:43.589Z,100213.48
2022-08-17T00:27:24.809Z,100209.87
2022-08-17T00:28:27.812Z,100205.66
2022-08-17T00:29:32.577Z,100207.28
2022-08-17T00:30:50.835Z,100200.88
2022-08-17T00:31:41.047Z,100205.32
2022-08-17T00:33:22.799Z,100200.58
2022-08-17T00:33:51.293Z,100210.28
2022-08-17T00:34:54.326Z,100204.38
2022-08-17T00:35:58.471Z,100202.12
2022-08-17T00:37:01.568Z,100199.85
2022-08-17T00:38:06.690Z,100190.36
2022-08-17T00:39:09.584Z,100190.03
2022-08-17T00:40:14.736Z,100195.94
2022-08-17T00:41:21.257Z,100196.73
2022-08-17T00:42:27.593Z,100197.06
2022-08-17T00:43:47.992Z,100200.67
2022-08-17T00:44:51.023Z,100202.64
2022-08-17T00:45:54.638Z,100193.16
2022-08-17T00:46:57.785Z,100195.94
2022-08-17T00:48:00.753Z,100195.59
2022-08-17T00:49:05.330Z,100197.25
2022-08-17T00:50:12.445Z,100189.72
2022-08-17T00:51:21.825Z,100188.59
2022-08-17T00:52:28.354Z,100194.98
2022-08-17T00:53:33.434Z,100189.08
2022-08-17T00:54:41.726Z,100189.08
2022-08-17T00:55:44.301Z,100191.56
2022-08-17T00:56:50.909Z,100178.45
2022-08-17T00:57:57.302Z,100176.53
2022-08-17T00:59:02.503Z,100174.57
2022-08-17T01:00:09.529Z,100169.83
2022-08-17T01:01:21.405Z,100173.44
2022-08-17T01:02:19.714Z,100161.16
2022-08-17T01:03:26.097Z,100163.95
2022-08-17T01:04:31.117Z,100159.51
2022-08-17T01:05:38.006Z,100160.09
2022-08-17T01:06:44.882Z,100158.44
2022-08-17T01:07:50.060Z,100153.20
2022-08-17T01:08:57.467Z,100148.77
2022-08-17T01:10:03.439Z,100143.19
2022-08-17T01:11:08.031Z,100142.06
2022-08-17T01:12:11.932Z,100134.84
2022-08-17T01:13:15.785Z,100143.50
2022-08-17T01:14:20.989Z,100152.16
2022-08-17T01:15:24.073Z,100150.55
2022-08-17T01:16:31.063Z,100155.28
2022-08-17T01:17:34.520Z,100150.84
2022-08-17T01:18:37.714Z,100156.42
2022-08-17T01:19:42.778Z,100157.25
2022-08-17T01:20:51.883Z,100155.28
2022-08-17T01:22:13.875Z,100153.63
2022-08-17T01:23:20.888Z,100145.28
2022-08-17T01:24:24.026Z,100147.55
2022-08-17T01:25:29.046Z,100143.44
2022-08-17T01:26:35.035Z,100142.61
2022-08-17T01:27:38.430Z,100140.14
2022-08-17T01:28:53.778Z,100139.31
2022-08-17T01:29:50.664Z,100141.27
2022-08-17T01:30:58.419Z,100139.62
2022-08-17T01:32:03.313Z,100142.40
2022-08-17T01:33:08.098Z,100147.17
2022-08-17T01:34:12.339Z,100143.05
2022-08-17T01:35:15.444Z,100143.05
2022-08-17T01:36:20.049Z,100146.13
2022-08-17T01:37:29.404Z,100143.16
2022-08-17T01:38:33.216Z,100145.13
2022-08-17T01:39:39.874Z,100140.19
2022-08-17T01:40:46.669Z,100145.55
2022-08-17T01:41:53.167Z,100140.31
2022-08-17T01:42:59.726Z,100139.79
2022-08-17T01:44:05.147Z,100139.79
2022-08-17T01:45:16.172Z,100140.92
2022-08-17T01:46:29.024Z,100136.48
2022-08-17T01:47:32.212Z,100136.00
2022-08-17T01:48:38.660Z,100137.43
2022-08-17T01:49:41.866Z,100129.38
2022-08-17T01:50:47.191Z,100135.28
2022-08-17T01:51:50.559Z,100141.98
2022-08-17T01:52:56.989Z,100131.16
2022-08-17T01:54:06.258Z,100131.16
2022-08-17T01:55:10.832Z,100131.16
2022-08-17T01:56:17.737Z,100135.06
2022-08-17T01:57:20.659Z,100135.89
2022-08-17T01:58:23.827Z,100138.67
2022-08-17T01:59:26.955Z,100142.28
2022-08-17T02:00:46.693Z,100137.85
2022-08-17T02:01:37.350Z,100131.79
2022-08-17T02:02:40.281Z,100140.45
2022-08-17T02:03:56.107Z,100135.18
2022-08-17T02:04:48.305Z,100144.17
2022-08-17T02:05:52.684Z,100139.20
2022-08-17T02:06:55.886Z,100145.41
2022-08-17T02:08:00.823Z,100139.63
2022-08-17T02:09:05.513Z,100136.34
2022-08-17T02:10:16.672Z,100134.69
2022-08-17T02:11:18.356Z,100134.47
2022-08-17T02:12:39.171Z,100129.20
2022-08-17T02:13:31.359Z,100137.86
2022-08-17T02:14:34.380Z,100137.36
2022-08-17T02:15:37.566Z,100136.02
2022-08-17T02:16:41.765Z,100131.58
2022-08-17T02:17:45.295Z,100137.14
2022-08-17T02:18:48.299Z,100132.70
2022-08-17T02:19:51.370Z,100128.30
2022-08-17T02:20:54.973Z,100134.99
2022-08-17T02:21:57.872Z,100128.91
2022-08-17T02:23:02.433Z,100133.97
2022-08-17T02:24:10.264Z,100138.70
2022-08-17T02:25:16.369Z,100126.75
2022-08-17T02:26:25.760Z,100129.53
2022-08-17T02:27:26.397Z,100126.23
2022-08-17T02:28:29.598Z,100123.75
2022-08-17T02:29:32.697Z,100130.97
2022-08-17T02:31:00.970Z,100127.88
2022-08-17T02:31:42.352Z,100122.84
2022-08-17T02:32:45.268Z,100119.43
2022-08-17T02:34:00.554Z,100119.95
2022-08-17T02:34:54.001Z,100122.41
2022-08-17T02:35:57.374Z,100119.31
2022-08-17T02:37:00.350Z,100119.84
2022-08-17T02:38:05.634Z,100120.34
2022-08-17T02:39:10.333Z,100116.13
2022-08-17T02:40:14.129Z,100117.78
2022-08-17T02:41:18.197Z,100113.83
2022-08-17T02:42:27.247Z,100106.01
2022-08-17T02:43:30.783Z,100116.05
2022-08-17T02:44:35.431Z,100113.26
2022-08-17T02:45:39.098Z,100112.13
2022-08-17T02:46:42.182Z,100114.09
2022-08-17T02:47:45.934Z,100110.75
2022-08-17T02:48:48.987Z,100111.87
2022-08-17T02:49:55.655Z,100109.42
2022-08-17T02:50:57.868Z,100111.69
2022-08-17T02:52:04.447Z,100114.77
2022-08-17T02:53:07.777Z,100113.12
2022-08-17T02:54:39.426Z,100108.72
2022-08-17T02:55:19.970Z,100104.58
2022-08-17T02:56:24.230Z,100104.58
2022-08-17T02:57:27.219Z,100104.58
2022-08-17T02:58:34.523Z,100102.93
2022-08-17T02:59:35.065Z,100110.78
2022-08-17T03:00:45.436Z,100107.47
2022-08-17T03:01:48.855Z,100110.25
2022-08-17T03:02:52.701Z,100105.52
2022-08-17T03:03:56.603Z,100105.52
2022-08-17T03:04:59.627Z,100102.21
2022-08-17T03:06:03.866Z,100109.23
2022-08-17T03:07:07.059Z,100109.23
2022-08-17T03:08:11.696Z,100114.80
2022-08-17T03:09:16.260Z,100114.27
2022-08-17T03:10:19.699Z,100115.93
2022-08-17T03:11:23.109Z,100117.88
2022-08-17T03:12:30.572Z,100117.88
2022-08-17T03:13:33.668Z,100113.15
2022-08-17T03:14:41.479Z,100118.71
2022-08-17T03:15:45.657Z,100113.15
2022-08-17T03:16:48.887Z,100112.02
2022-08-17T03:17:53.652Z,100103.38
2022-08-17T03:18:56.933Z,100109.42
2022-08-17T03:20:00.143Z,100109.13
2022-08-17T03:21:03.894Z,100106.88
2022-08-17T03:22:36.186Z,100111.27
2022-08-17T03:23:12.971Z,100114.05
2022-08-17T03:24:16.436Z,100110.45
2022-08-17T03:25:27.569Z,100107.66
2022-08-17T03:26:31.792Z,100107.66
2022-08-17T03:27:35.183Z,100112.44
2022-08-17T03:28:38.658Z,100121.39
2022-08-17T03:29:41.864Z,100118.60
2022-08-17T03:30:45.031Z,100116.95
2022-08-17T03:31:49.197Z,100118.08
2022-08-17T03:32:54.615Z,100112.52
2022-08-17T03:33:57.812Z,100113.67
2022-08-17T03:35:02.275Z,100110.89
2022-08-17T03:36:06.319Z,100120.86
2022-08-17T03:37:09.644Z,100123.64
2022-08-17T03:38:15.950Z,100124.80
2022-08-17T03:39:19.160Z,100128.41
2022-08-17T03:40:34.519Z,100131.19
2022-08-17T03:41:27.301Z,100133.14
2022-08-17T03:42:32.540Z,100133.97
2022-08-17T03:43:35.575Z,100138.70
2022-08-17T03:44:38.532Z,100128.71
2022-08-17T03:46:00.638Z,100140.97
2022-08-17T03:47:22.189Z,100129.84
2022-08-17T03:48:43.633Z,100134.58
2022-08-17T03:50:06.742Z,100126.23
2022-08-17T03:51:15.531Z,100123.97
2022-08-17T03:52:36.680Z,100128.41
2022-08-17T03:54:12.486Z,100124.47
2022-08-17T03:55:36.407Z,100127.58
2022-08-17T03:56:42.434Z,100127.58
2022-08-17T03:57:45.430Z,100124.80
2022-08-17T03:58:49.202Z,100127.25
2022-08-17T03:59:53.821Z,100123.34
2022-08-17T04:00:56.882Z,100120.26
2022-08-17T04:02:08.392Z,100121.58
2022-08-17T04:03:12.837Z,100122.41
2022-08-17T04:04:16.323Z,100121.27
2022-08-17T04:05:21.225Z,100124.88
2022-08-17T04:06:24.311Z,100122.93
2022-08-17T04:07:29.351Z,100121.80
2022-08-17T04:08:32.848Z,100116.42
2022-08-17T04:09:36.074Z,100109.73
2022-08-17T04:10:44.809Z,100109.73
2022-08-17T04:11:44.873Z,100115.00
2022-08-17T04:12:52.545Z,100112.70
2022-08-17T04:13:56.199Z,100104.09
2022-08-17T04:14:59.266Z,100111.30
2022-08-17T04:16:02.247Z,100116.56
2022-08-17T04:17:07.238Z,100111.30
2022-08-17T04:18:11.070Z,100114.91
2022-08-17T04:19:14.304Z,100114.09
2022-08-17T04:20:20.228Z,100115.22
2022-08-17T04:21:23.840Z,100114.36
2022-08-17T04:22:33.235Z,100114.09
2022-08-17T04:23:34.543Z,100112.95
2022-08-17T04:24:37.647Z,100112.95
2022-08-17T04:25:44.004Z,100105.44
2022-08-17T04:26:53.175Z,100106.23
2022-08-17T04:27:54.433Z,100109.02
2022-08-17T04:28:59.835Z,100111.49
2022-08-17T04:30:06.328Z,100108.71
2022-08-17T04:31:11.195Z,100105.63
2022-08-17T04:32:14.080Z,100103.03
2022-08-17T04:33:20.848Z,100111.37
2022-08-17T04:34:24.547Z,100108.29
2022-08-17T04:35:31.332Z,100101.90
2022-08-17T04:36:35.972Z,100110.25
2022-08-17T04:37:38.831Z,100107.16
2022-08-17T04:38:43.917Z,100104.38
2022-08-17T04:39:48.873Z,100116.34
2022-08-17T04:41:11.890Z,100114.05
2022-08-17T04:42:16.721Z,100108.48
2022-08-17T04:43:22.550Z,100113.74
2022-08-17T04:44:36.958Z,100113.44
2022-08-17T04:45:31.969Z,100111.97
2022-08-17T04:46:35.850Z,100112.49
2022-08-17T04:47:39.693Z,100118.89
2022-08-17T04:48:48.478Z,100104.97
2022-08-17T04:49:53.094Z,100107.75
2022-08-17T04:50:57.889Z,100113.02
2022-08-17T04:52:04.303Z,100109.07
2022-08-17T04:53:05.996Z,100103.20
2022-08-17T04:54:12.386Z,100100.11
2022-08-17T04:55:15.451Z,100101.76
2022-08-17T04:56:19.063Z,100100.63
2022-08-17T04:57:22.227Z,100099.47
2022-08-17T04:58:25.611Z,100085.23
2022-08-17T04:59:28.636Z,100096.07
2022-08-17T05:00:33.127Z,100101.00
2022-08-17T05:01:38.639Z,100093.16
2022-08-17T05:02:50.290Z,100096.13
2022-08-17T05:03:55.881Z,100093.04
2022-08-17T05:04:59.026Z,100094.36
2022-08-17T05:06:03.837Z,100099.83
2022-08-17T05:07:07.229Z,100094.75
2022-08-17T05:08:10.401Z,100102.48
2022-08-17T05:09:13.670Z,100088.23
2022-08-17T05:10:17.229Z,100090.39
2022-08-17T05:11:20.728Z,100087.30
2022-08-17T05:12:23.802Z,100085.00
2022-08-17T05:13:31.696Z,100089.96
2022-08-17T05:14:34.809Z,100086.84
2022-08-17T05:15:45.182Z,100086.25
2022-08-17T05:16:46.992Z,100089.52
2022-08-17T05:17:49.897Z,100081.68
2022-08-17T05:18:53.803Z,100086.63
2022-08-17T05:19:56.716Z,100083.51
2022-08-17T05:20:59.933Z,100088.47
2022-08-17T05:22:05.154Z,100087.81
2022-08-17T05:23:11.751Z,100084.41
2022-08-17T05:24:42.467Z,100082.93
2022-08-17T05:25:25.611Z,100080.66
2022-08-17T05:26:29.575Z,100082.80
2022-08-17T05:27:35.279Z,100082.48
2022-08-17T05:28:37.682Z,100075.44
2022-08-17T05:29:41.060Z,100071.71
2022-08-17T05:30:45.280Z,100076.95
2022-08-17T05:31:50.253Z,100074.36
2022-08-17T05:32:58.983Z,100079.28
2022-08-17T05:34:02.915Z,100075.87
2022-08-17T05:35:06.559Z,100073.25
2022-08-17T05:36:42.331Z,100072.59
2022-08-17T05:37:18.295Z,100073.11
2022-08-17T05:38:22.960Z,100066.09
2022-08-17T05:39:26.019Z,100064.60
2022-08-17T05:40:32.694Z,100071.52
2022-08-17T05:41:35.104Z,100076.44
2022-08-17T05:42:38.184Z,100074.98
2022-08-17T05:43:42.197Z,100073.53
2022-08-17T05:44:45.469Z,100074.87
2022-08-17T05:46:07.023Z,100067.80
2022-08-17T05:47:10.144Z,100071.11
2022-08-17T05:48:14.857Z,100068.48
2022-08-17T05:49:21.536Z,100065.38
2022-08-17T05:50:31.328Z,100067.51
2022-08-17T05:52:00.775Z,100062.44
2022-08-17T05:53:07.369Z,100066.56
2022-08-17T05:54:45.370Z,100061.47
2022-08-17T05:56:22.365Z,100060.01
2022-08-17T05:57:36.510Z,100058.87
2022-08-17T05:58:50.195Z,100064.61
2022-08-17T06:00:02.611Z,100057.89
2022-08-17T06:01:13.900Z,100059.19
2022-08-17T06:02:49.352Z,100046.89
2022-08-17T06:04:02.022Z,100053.45
2022-08-17T06:05:25.316Z,100051.17
2022-08-17T06:06:44.396Z,100056.44
2022-08-17T06:08:07.980Z,100049.37
2022-08-17T06:10:29.185Z,100049.23
2022-08-17T06:11:36.168Z,100046.42
2022-08-17T06:13:00.591Z,100052.51
2022-08-17T06:14:19.279Z,100052.19
2022-08-17T06:15:31.961Z,100050.70
2022-08-17T06:16:38.532Z,100045.62
2022-08-17T06:17:42.932Z,100044.48
2022-08-17T06:18:49.575Z,100051.36
2022-08-17T06:19:56.403Z,100051.55
2022-08-17T06:21:03.187Z,100052.03
2022-08-17T06:22:09.397Z,100048.62
2022-08-17T06:23:17.743Z,100052.72
2022-08-17T06:24:30.953Z,100062.42
2022-08-17T06:25:37.533Z,100051.73
2022-08-17T06:26:43.685Z,100055.03
2022-08-17T06:27:53.874Z,100056.00
2022-08-17T06:29:00.656Z,100050.92
2022-08-17T06:30:24.320Z,100059.45
2022-08-17T06:31:30.429Z,100057.17
2022-08-17T06:32:38.809Z,100049.30
2022-08-17T06:33:43.703Z,100046.66
2022-08-17T06:34:46.800Z,100049.12
2022-08-17T06:36:02.801Z,100054.05
2022-08-17T06:37:18.252Z,100055.69
2022-08-17T06:38:43.161Z,100048.64
2022-08-17T06:40:02.139Z,100047.96
2022-08-17T06:41:09.673Z,100049.61
2022-08-17T06:42:59.985Z,100050.91
2022-08-17T06:43:34.162Z,100046.14
2022-08-17T06:45:05.078Z,100052.23
2022-08-17T06:46:12.425Z,100037.95
2022-08-17T06:47:28.717Z,100032.50
2022-08-17T06:48:51.735Z,100033.80
2022-08-17T06:50:11.248Z,100033.80
2022-08-17T06:51:18.048Z,100033.47
2022-08-17T06:52:46.841Z,100033.16
2022-08-17T06:53:41.956Z,100029.36
2022-08-17T06:55:18.179Z,100029.36
2022-08-17T06:56:53.694Z,100041.03
2022-08-17T06:57:40.535Z,100031.16
2022-08-17T06:58:44.347Z,100034.16
2022-08-17T06:59:55.515Z,100034.16
2022-08-17T07:00:58.963Z,100031.50
2022-08-17T07:02:05.911Z,100038.41
2022-08-17T07:03:24.573Z,100038.41
2022-08-17T07:04:30.758Z,100032.47
2022-08-17T07:05:44.489Z,100029.35
2022-08-17T07:06:53.937Z,100037.06
2022-08-17T07:08:12.674Z,100036.73
2022-08-17T07:09:22.813Z,100030.81
2022-08-17T07:10:28.813Z,100037.37
2022-08-17T07:11:41.529Z,100028.66
2022-08-17T07:12:45.578Z,100037.20
2022-08-17T07:13:58.410Z,100038.52
2022-08-17T07:15:14.378Z,100039.48
2022-08-17T07:16:27.895Z,100036.83
2022-08-17T07:17:47.440Z,100040.12
2022-08-17T07:18:38.747Z,100036.64
2022-08-17T07:19:45.009Z,100039.94
2022-08-17T07:20:51.640Z,100034.02
2022-08-17T07:22:07.146Z,100029.70
2022-08-17T07:23:16.779Z,100028.56
2022-08-17T07:24:36.772Z,100038.27
2022-08-17T07:25:39.950Z,100034.78
2022-08-17T07:26:43.029Z,100033.31
2022-08-17T07:27:52.218Z,100032.95
2022-08-17T07:28:55.733Z,100035.92
2022-08-17T07:30:17.279Z,100031.97
2022-08-17T07:31:20.544Z,100036.58
2022-08-17T07:32:33.664Z,100036.58
2022-08-17T07:33:37.654Z,100041.84
2022-08-17T07:35:12.878Z,100032.27
2022-08-17T07:36:29.792Z,100035.06
2022-08-17T07:37:33.079Z,100035.56
2022-08-17T07:38:39.676Z,100037.21
2022-08-17T07:39:59.714Z,100038.03
2022-08-17T07:41:04.536Z,100041.66
2022-08-17T07:42:09.821Z,100043.27
2022-08-17T07:43:22.201Z,100040.14
2022-08-17T07:44:20.777Z,100040.64
2022-08-17T07:45:42.152Z,100040.27
2022-08-17T07:47:09.602Z,100033.53
2022-08-17T07:48:19.271Z,100032.38
2022-08-17T07:49:34.783Z,100038.47
2022-08-17T07:50:38.476Z,100034.52
2022-08-17T07:51:49.355Z,100038.93
2022-08-17T07:52:52.602Z,100043.38
2022-08-17T07:54:13.556Z,100041.89
2022-08-17T07:55:11.738Z,100042.36
2022-08-17T07:56:37.360Z,100040.37
2022-08-17T07:57:40.359Z,100040.05
2022-08-17T07:58:43.354Z,100039.72
2022-08-17T08:00:12.810Z,100039.72
2022-08-17T08:01:17.869Z,100039.36
2022-08-17T08:02:38.157Z,100029.81
2022-08-17T08:03:43.091Z,100031.13
2022-08-17T08:05:01.147Z,100030.80
2022-08-17T08:06:00.601Z,100035.20
2022-08-17T08:07:07.213Z,100036.03
2022-08-17T08:08:43.083Z,100036.85
2022-08-17T08:10:01.538Z,100033.72
2022-08-17T08:11:18.113Z,100035.37
2022-08-17T08:12:33.613Z,100038.99
2022-08-17T08:13:42.047Z,100033.85
2022-08-17T08:14:57.935Z,100027.43
2022-08-17T08:17:29.327Z,100029.16
2022-08-17T08:18:53.845Z,100030.23
2022-08-17T08:19:40.132Z,100033.85
2022-08-17T08:20:52.413Z,100034.67
2022-08-17T08:22:19.715Z,100039.12
2022-08-17T08:23:38.961Z,100033.19
2022-08-17T08:24:48.578Z,100030.39
2022-08-17T08:26:00.887Z,100040.44
2022-08-17T08:27:38.540Z,100030.85
2022-08-17T08:29:06.254Z,100038.92
2022-08-17T08:30:19.095Z,100040.56
2022-08-17T08:31:28.796Z,100035.79
2022-08-17T08:32:58.544Z,100034.63
2022-08-17T08:34:47.392Z,100026.70
2022-08-17T08:35:30.994Z,100032.78
2022-08-17T08:37:12.583Z,100031.27
2022-08-17T08:38:05.427Z,100026.16
2022-08-17T08:39:17.594Z,100022.69
2022-08-17T08:40:38.200Z,100021.20
2022-08-17T08:41:57.893Z,100026.11
2022-08-17T08:43:04.710Z,100023.80
2022-08-17T08:45:00.350Z,100027.91
2022-08-17T08:45:56.050Z,100031.99
2022-08-17T08:47:18.684Z,100029.68
2022-08-17T08:48:56.083Z,100024.20
2022-08-17T08:50:05.969Z,100024.69
2022-08-17T08:51:26.445Z,100025.97
2022-08-17T08:52:42.140Z,100026.45
2022-08-17T08:53:51.503Z,100017.36
2022-08-17T08:55:12.869Z,100033.50
2022-08-17T08:56:39.056Z,100024.76
2022-08-17T08:59:32.855Z,100022.47
2022-08-17T09:00:40.015Z,100026.52
2022-08-17T09:01:49.675Z,100024.17
2022-08-17T09:03:11.491Z,100034.23
2022-08-17T09:04:25.263Z,100023.50
2022-08-17T09:05:55.423Z,100023.50
2022-08-17T09:07:20.446Z,100028.41
2022-08-17T09:08:39.079Z,100029.72
2022-08-17T09:10:04.481Z,100023.77
2022-08-17T09:11:21.870Z,100031.81
2022-08-17T09:12:29.238Z,100029.50
2022-08-17T09:14:02.503Z,100029.98
2022-08-17T09:15:33.043Z,100024.83
2022-08-17T09:18:59.923Z,100021.41
2022-08-17T09:19:37.950Z,100019.04
2022-08-17T09:20:53.383Z,100015.56
2022-08-17T09:22:00.077Z,100014.41
2022-08-17T09:23:07.466Z,100021.28
2022-08-17T09:24:25.990Z,100016.16
2022-08-17T09:25:32.703Z,100015.45
2022-08-17T09:28:35.675Z,100013.25
2022-08-17T09:29:44.956Z,100008.12
2022-08-17T09:30:51.496Z,100008.58
2022-08-17T09:31:57.693Z,100003.45
2022-08-17T09:33:04.340Z,100007.08
2022-08-17T09:34:16.246Z,100012.35
2022-08-17T09:35:24.523Z,100001.95
2022-08-17T09:36:37.878Z,99994.36
2022-08-17T09:38:04.316Z,100008.39
2022-08-17T09:39:16.738Z,99995.16
2022-08-17T09:40:35.464Z,99999.60
2022-08-17T09:41:49.330Z,100007.67
2022-08-17T09:42:56.456Z,99996.94
2022-08-17T09:44:28.589Z,99996.56
2022-08-17T09:45:48.902Z,100003.48
2022-08-17T09:47:10.661Z,100003.97
2022-08-17T09:48:19.948Z,100001.61
2022-08-17T09:49:32.528Z,99997.64
2022-08-17T09:51:05.378Z,100006.54
2022-08-17T09:52:12.984Z,99996.93
2022-08-17T09:53:16.150Z,99998.23
2022-08-17T09:54:40.846Z,100003.50
2022-08-17T09:56:04.452Z,100000.33
2022-08-17T09:57:29.739Z,99996.36
2022-08-17T09:58:29.120Z,99994.03
2022-08-17T09:59:56.379Z,100000.47
2022-08-17T10:02:43.476Z,100000.52
2022-08-17T10:03:59.235Z,99999.30
2022-08-17T10:05:14.787Z,100002.11
2022-08-17T10:06:33.597Z,99997.66
2022-08-17T10:07:42.840Z,100006.91
2022-08-17T10:09:00.539Z,100004.55
2022-08-17T10:10:14.373Z,100003.38
2022-08-17T10:11:50.401Z,100007.48
2022-08-17T10:12:57.220Z,100001.53
2022-08-17T10:14:36.513Z,100005.64
2022-08-17T10:15:27.408Z,99995.24
2022-08-17T10:16:49.201Z,100002.50
2022-08-17T10:18:06.470Z,100000.95
2022-08-17T10:19:36.941Z,100004.25
2022-08-17T10:20:50.465Z,100009.14
2022-08-17T10:22:35.161Z,100001.20
2022-08-17T10:23:44.661Z,99995.25
2022-08-17T10:25:22.899Z,100000.97
2022-08-17T10:26:21.964Z,100002.61
2022-08-17T10:27:34.576Z,100003.05
2022-08-17T10:29:02.385Z,99996.28
2022-08-17T10:30:07.580Z,100002.38
2022-08-17T10:31:34.469Z,99994.42
2022-08-17T10:32:41.003Z,99996.52
2022-08-17T10:34:11.807Z,99995.35
2022-08-17T10:35:33.520Z,99998.26
2022-08-17T10:36:53.818Z,100009.14
2022-08-17T10:38:03.295Z,100005.99
2022-08-17T10:39:09.841Z,100005.99
2022-08-17T10:40:32.563Z,100008.42
2022-08-17T10:41:42.398Z,100003.29
2022-08-17T10:42:51.723Z,100000.95
2022-08-17T10:44:38.520Z,100003.39
2022-08-17T10:45:30.097Z,100001.06
2022-08-17T10:46:53.471Z,100001.53
2022-08-17T10:48:05.761Z,100009.58
2022-08-17T10:49:23.260Z,99998.35
2022-08-17T10:50:57.883Z,100000.81
2022-08-17T10:52:22.302Z,100002.80
2022-08-17T10:53:41.537Z,99998.00
2022-08-17T10:54:58.751Z,100010.88
2022-08-17T10:56:16.963Z,100006.08
2022-08-17T10:57:32.616Z,100003.72
2022-08-17T10:58:54.138Z,100008.99
2022-08-17T10:59:58.725Z,100005.02
2022-08-17T11:01:03.284Z,100005.84
2022-08-17T11:02:17.474Z,100006.69
2022-08-17T11:03:24.115Z,100007.52
2022-08-17T11:04:47.402Z,100004.70
2022-08-17T11:06:01.386Z,100001.89
2022-08-17T11:07:27.741Z,100000.70
2022-08-17T11:08:50.769Z,100002.34
2022-08-17T11:10:06.610Z,100001.17
2022-08-17T11:11:33.579Z,99992.40
2022-08-17T11:12:49.485Z,100003.29
2022-08-17T11:14:09.457Z,100003.73
2022-08-17T11:15:34.232Z,100003.86
2022-08-17T11:17:15.262Z,99995.44
2022-08-17T11:18:27.714Z,99994.23
2022-08-17T11:19:42.900Z,100003.14
2022-08-17T11:21:09.092Z,99994.71
2022-08-17T11:22:33.327Z,99995.53
2022-08-17T11:23:40.157Z,99997.17
2022-08-17T11:24:47.339Z,99996.00
2022-08-17T11:25:54.030Z,99997.62
2022-08-17T11:27:23.489Z,99987.20
2022-08-17T11:28:34.304Z,99992.47
2022-08-17T11:30:01.235Z,99992.95
2022-08-17T11:31:10.803Z,99995.03
2022-08-17T11:32:47.477Z,99993.86
2022-08-17T11:33:56.278Z,99995.95
2022-08-17T11:35:24.791Z,99987.98
2022-08-17T11:37:10.553Z,99994.08
2022-08-17T11:38:20.084Z,99986.09
2022-08-17T11:39:26.814Z,99986.91
2022-08-17T11:41:05.339Z,99993.00
2022-08-17T11:42:35.682Z,99995.44
2022-08-17T11:45:32.420Z,99988.25
2022-08-17T11:46:35.614Z,99986.78
2022-08-17T11:48:28.823Z,99978.78
2022-08-17T11:49:42.277Z,99979.95
2022-08-17T11:51:08.663Z,99991.20
2022-08-17T11:52:36.154Z,99988.39
2022-08-17T11:53:42.837Z,99977.97
2022-08-17T11:54:48.052Z,99977.62
2022-08-17T11:56:00.728Z,99977.27
2022-08-17T11:57:27.191Z,99978.09
2022-08-17T11:58:35.692Z,99979.34
2022-08-17T11:59:43.234Z,99977.83
2022-08-17T12:00:51.294Z,99975.84
2022-08-17T12:01:56.657Z,99975.45
2022-08-17T12:03:22.943Z,99973.47
2022-08-17T12:04:31.776Z,99972.33
2022-08-17T12:05:36.270Z,99977.25
2022-08-17T12:06:56.411Z,99985.30
2022-08-17T12:08:14.686Z,99976.52
2022-08-17T12:09:21.483Z,99980.63
2022-08-17T12:10:31.907Z,99975.00
2022-08-17T12:12:10.927Z,99973.80
2022-08-17T12:12:54.565Z,99980.23
2022-08-17T12:14:00.266Z,99976.25
2022-08-17T12:15:10.546Z,99979.89
2022-08-17T12:16:17.200Z,99980.35
2022-08-17T12:17:41.442Z,99983.98
2022-08-17T12:18:37.799Z,99979.16
2022-08-17T12:19:42.701Z,99984.42
2022-08-17T12:20:53.217Z,99973.64
2022-08-17T12:22:23.005Z,99980.09
2022-08-17T12:23:39.363Z,99986.53
2022-08-17T12:25:01.329Z,99986.16
2022-08-17T12:26:14.707Z,99984.16
2022-08-17T12:28:04.399Z,99979.70
2022-08-17T12:28:35.544Z,99984.16
2022-08-17T12:29:42.104Z,99980.17
2022-08-17T12:30:50.426Z,99975.38
2022-08-17T12:31:56.201Z,99966.59
2022-08-17T12:33:00.443Z,99978.66
2022-08-17T12:34:04.534Z,99974.64
2022-08-17T12:35:23.331Z,99981.91
2022-08-17T12:36:28.737Z,99978.27
2022-08-17T12:37:34.805Z,99980.27
2022-08-17T12:38:38.189Z,99981.08
2022-08-17T12:39:53.983Z,99977.92
2022-08-17T12:40:58.564Z,99974.75
2022-08-17T12:42:02.801Z,99974.38
2022-08-17T12:43:20.813Z,99970.38
2022-08-17T12:44:36.011Z,99974.84
2022-08-17T12:45:41.292Z,99982.10
2022-08-17T12:46:53.314Z,99980.93
2022-08-17T12:48:09.109Z,99967.69
2022-08-17T12:49:29.007Z,99978.55
2022-08-17T12:50:36.560Z,99976.56
2022-08-17T12:51:44.852Z,99970.12
2022-08-17T12:52:48.444Z,99966.12
2022-08-17T12:53:55.081Z,99974.56
2022-08-17T12:55:07.892Z,99974.22
2022-08-17T12:56:13.003Z,99975.03
2022-08-17T12:57:25.465Z,99977.50
2022-08-17T12:58:32.099Z,99976.67
2022-08-17T12:59:38.840Z,99976.67
2022-08-17T13:01:08.298Z,99969.06
2022-08-17T13:02:30.468Z,99971.88
2022-08-17T13:03:39.669Z,99975.12
2022-08-17T13:04:43.030Z,99975.12
2022-08-17T13:06:05.757Z,99963.87
2022-08-17T13:07:08.886Z,99969.14
2022-08-17T13:08:22.725Z,99975.59
2022-08-17T13:09:35.664Z,99983.20
2022-08-17T13:10:35.559Z,99982.39
2022-08-17T13:11:48.161Z,99982.39
2022-08-17T13:12:52.008Z,99970.31
2022-08-17T13:13:56.413Z,99973.95
2022-08-17T13:14:59.838Z,99976.76
2022-08-17T13:16:08.588Z,99984.38
2022-08-17T13:17:13.730Z,99973.48
2022-08-17T13:18:45.785Z,99963.87
2022-08-17T13:19:50.893Z,99966.33
2022-08-17T13:20:57.681Z,99980.86
2022-08-17T13:22:01.569Z,99973.20
2022-08-17T13:23:12.374Z,99978.13
2022-08-17T13:24:19.971Z,99972.14
2022-08-17T13:25:23.924Z,99968.95
2022-08-17T13:26:33.385Z,99977.03
2022-08-17T13:27:37.694Z,99967.92
2022-08-17T13:28:51.217Z,99963.55
2022-08-17T13:29:58.995Z,99974.88
2022-08-17T13:32:43.032Z,99968.25
2022-08-17T13:33:45.139Z,99968.88
2022-08-17T13:35:15.207Z,99964.61
2022-08-17T13:36:07.795Z,99967.14
2022-08-17T13:37:32.195Z,99969.32
2022-08-17T13:38:48.186Z,99965.86
2022-08-17T13:39:56.124Z,99974.52